createdAt,value
2023-03-16T00:00:13.609Z,13.68
2023-03-16T00:02:44.117Z,13.43
2023-03-16T00:05:12.955Z,14.63
2023-03-16T00:07:41.821Z,13.95
2023-03-16T00:10:12.232Z,14.10
2023-03-16T00:12:39.456Z,14.13
2023-03-16T00:15:06.729Z,13.82
2023-03-16T00:17:34.623Z,14.93
2023-03-16T00:20:03.121Z,14.77
2023-03-16T00:22:30.560Z,14.68
2023-03-16T00:24:58.301Z,14.43
2023-03-16T00:27:26.383Z,14.32
2023-03-16T00:29:57.405Z,14.70
2023-03-16T00:32:29.761Z,13.93
2023-03-16T00:34:56.732Z,14.40
2023-03-16T00:37:25.010Z,14.20
2023-03-16T00:39:52.565Z,14.38
2023-03-16T00:42:20.155Z,14.65
2023-03-16T00:44:47.064Z,15.55
2023-03-16T00:47:14.347Z,15.80
2023-03-16T00:49:43.153Z,15.30
2023-03-16T00:52:15.129Z,15.00
2023-03-16T00:54:43.409Z,14.70
2023-03-16T00:57:12.283Z,15.18
2023-03-16T00:59:39.040Z,15.20
2023-03-16T01:02:10.049Z,15.40
2023-03-16T01:04:37.411Z,15.90
2023-03-16T01:07:05.069Z,17.60
2023-03-16T01:09:36.723Z,14.88
2023-03-16T01:12:09.053Z,15.15
2023-03-16T01:14:36.586Z,15.23
2023-03-16T01:17:08.213Z,16.15
2023-03-16T01:19:36.392Z,15.85
2023-03-16T01:22:09.626Z,16.20
2023-03-16T01:24:37.000Z,15.90
2023-03-16T01:27:04.809Z,16.75
2023-03-16T01:29:32.958Z,15.65
2023-03-16T01:32:01.186Z,16.20
2023-03-16T01:34:28.488Z,16.27
2023-03-16T01:36:56.271Z,15.70
2023-03-16T01:39:29.814Z,15.60
2023-03-16T01:41:56.513Z,16.45
2023-03-16T01:44:30.338Z,15.73
2023-03-16T01:47:00.712Z,14.52
2023-03-16T01:49:32.720Z,14.30
2023-03-16T01:52:27.200Z,16.27
2023-03-16T01:55:08.665Z,14.00
2023-03-16T01:57:40.348Z,13.98
2023-03-16T02:00:23.403Z,14.02
2023-03-16T02:03:18.423Z,12.33
2023-03-16T02:06:01.835Z,13.73
2023-03-16T02:08:32.185Z,13.90
2023-03-16T02:10:59.353Z,14.05
2023-03-16T02:13:37.939Z,13.65
2023-03-16T02:16:08.196Z,12.73
2023-03-16T02:18:35.721Z,12.57
2023-03-16T02:21:19.234Z,13.23
2023-03-16T02:23:47.100Z,14.02
2023-03-16T02:26:35.922Z,13.80
2023-03-16T02:29:29.628Z,14.75
2023-03-16T02:31:58.101Z,15.48
2023-03-16T02:34:26.181Z,14.35
2023-03-16T02:36:53.710Z,14.20
2023-03-16T02:39:24.467Z,14.60
2023-03-16T02:41:51.134Z,14.55
2023-03-16T02:44:24.128Z,14.45
2023-03-16T02:46:56.121Z,14.10
2023-03-16T02:49:33.969Z,15.32
2023-03-16T02:52:00.610Z,15.35
2023-03-16T02:54:27.341Z,15.43
2023-03-16T02:56:54.174Z,15.77
2023-03-16T02:59:21.656Z,15.82
2023-03-16T03:01:51.515Z,16.35
2023-03-16T03:04:18.393Z,16.60
2023-03-16T03:06:45.152Z,15.88
2023-03-16T03:09:12.180Z,16.65
2023-03-16T03:11:39.884Z,16.35
2023-03-16T03:14:06.663Z,16.98
2023-03-16T03:16:34.395Z,17.10
2023-03-16T03:19:01.247Z,17.42
2023-03-16T03:21:30.410Z,15.93
2023-03-16T03:23:57.201Z,17.20
2023-03-16T03:26:24.729Z,16.80
2023-03-16T03:28:52.507Z,16.00
2023-03-16T03:31:22.011Z,16.73
2023-03-16T03:33:49.529Z,16.27
2023-03-16T03:36:16.693Z,16.38
2023-03-16T03:38:44.745Z,16.23
2023-03-16T03:41:12.654Z,18.00
2023-03-16T03:43:39.642Z,16.65
2023-03-16T03:46:10.593Z,16.13
2023-03-16T03:48:37.311Z,18.08
2023-03-16T03:51:05.418Z,17.38
2023-03-16T03:53:55.062Z,16.98
2023-03-16T03:56:36.434Z,17.52
2023-03-16T03:59:05.092Z,16.67
2023-03-16T04:01:58.229Z,18.10
2023-03-16T04:04:29.886Z,17.83
2023-03-16T04:06:56.567Z,18.30
2023-03-16T04:09:23.765Z,18.00
2023-03-16T04:11:50.809Z,17.67
2023-03-16T04:14:17.518Z,18.30
2023-03-16T04:16:44.587Z,18.88
2023-03-16T04:19:13.210Z,18.05
2023-03-16T04:21:40.633Z,18.33
2023-03-16T04:24:07.574Z,17.45
2023-03-16T04:26:36.207Z,17.77
2023-03-16T04:29:04.168Z,17.95
2023-03-16T04:31:32.374Z,18.17
2023-03-16T04:33:59.394Z,18.63
2023-03-16T04:36:26.094Z,17.80
2023-03-16T04:38:53.804Z,17.65
2023-03-16T04:41:20.564Z,19.40
2023-03-16T04:43:55.206Z,18.35
2023-03-16T04:46:24.993Z,17.15
2023-03-16T04:48:51.989Z,18.13
2023-03-16T04:51:18.713Z,17.58
2023-03-16T04:53:59.264Z,17.20
2023-03-16T04:56:33.824Z,17.27
2023-03-16T04:59:04.800Z,18.45
2023-03-16T05:01:43.410Z,17.95
2023-03-16T05:04:15.036Z,19.33
2023-03-16T05:06:45.843Z,18.17
2023-03-16T05:09:13.846Z,17.58
2023-03-16T05:11:40.712Z,18.58
2023-03-16T05:14:10.165Z,19.02
2023-03-16T05:16:49.803Z,18.83
2023-03-16T05:19:16.497Z,18.48
2023-03-16T05:21:45.606Z,23.00
2023-03-16T05:24:12.688Z,19.23
2023-03-16T05:26:39.646Z,21.08
2023-03-16T05:29:10.315Z,19.10
2023-03-16T05:31:38.334Z,19.52
2023-03-16T05:34:10.664Z,22.05
2023-03-16T05:36:37.398Z,20.92
2023-03-16T05:39:08.790Z,20.60
2023-03-16T05:41:39.277Z,20.83
2023-03-16T05:44:13.498Z,22.95
2023-03-16T05:46:57.153Z,20.73
2023-03-16T05:49:23.898Z,24.67
2023-03-16T05:51:50.766Z,26.42
2023-03-16T05:54:17.583Z,24.52
2023-03-16T05:56:46.042Z,23.92
2023-03-16T05:59:13.083Z,25.77
2023-03-16T06:01:40.162Z,24.27
2023-03-16T06:04:07.266Z,23.25
2023-03-16T06:06:37.122Z,26.17
2023-03-16T06:09:15.021Z,27.70
2023-03-16T06:11:42.233Z,24.83
2023-03-16T06:14:09.090Z,25.73
2023-03-16T06:16:36.785Z,28.85
2023-03-16T06:19:03.517Z,27.58
2023-03-16T06:21:32.138Z,26.80
2023-03-16T06:24:05.157Z,26.90
2023-03-16T06:26:31.889Z,27.95
2023-03-16T06:28:59.584Z,26.75
2023-03-16T06:31:26.297Z,26.17
2023-03-16T06:33:53.040Z,26.63
2023-03-16T06:36:19.723Z,27.45
2023-03-16T06:38:51.697Z,25.52
2023-03-16T06:41:24.675Z,26.45
2023-03-16T06:43:51.537Z,26.15
2023-03-16T06:46:18.215Z,23.48
2023-03-16T06:48:47.180Z,24.63
2023-03-16T06:51:16.290Z,24.23
2023-03-16T06:53:44.638Z,25.42
2023-03-16T06:56:11.687Z,24.30
2023-03-16T06:58:41.639Z,25.40
2023-03-16T07:01:08.396Z,24.95
2023-03-16T07:03:35.313Z,25.02
2023-03-16T07:06:09.432Z,24.70
2023-03-16T07:08:36.208Z,24.55
2023-03-16T07:11:03.391Z,25.27
2023-03-16T07:13:30.391Z,26.08
2023-03-16T07:15:57.432Z,26.13
2023-03-16T07:18:26.073Z,28.17
2023-03-16T07:20:54.533Z,30.98
2023-03-16T07:23:24.749Z,28.08
2023-03-16T07:25:53.133Z,29.20
2023-03-16T07:28:20.599Z,29.33
2023-03-16T07:31:02.428Z,30.08
2023-03-16T07:33:33.003Z,31.90
2023-03-16T07:36:05.549Z,34.08
2023-03-16T07:38:36.252Z,32.55
2023-03-16T07:41:03.890Z,32.13
2023-03-16T07:43:30.605Z,32.03
2023-03-16T07:45:57.327Z,33.38
2023-03-16T07:48:25.888Z,32.47
2023-03-16T07:50:56.509Z,33.70
2023-03-16T07:53:24.537Z,34.80
2023-03-16T07:56:02.141Z,32.85
2023-03-16T07:58:31.942Z,32.75
2023-03-16T08:00:59.859Z,32.92
2023-03-16T08:03:27.349Z,36.38
2023-03-16T08:05:55.126Z,33.67
2023-03-16T08:08:22.900Z,38.05
2023-03-16T08:10:56.552Z,36.65
2023-03-16T08:13:30.026Z,36.80
2023-03-16T08:16:01.919Z,36.20
2023-03-16T08:18:38.132Z,37.60
2023-03-16T08:21:06.556Z,37.33
2023-03-16T08:23:33.808Z,37.90
2023-03-16T08:26:01.034Z,36.05
2023-03-16T08:28:27.931Z,37.10
2023-03-16T08:30:56.033Z,41.20
2023-03-16T08:33:44.316Z,42.88
2023-03-16T08:36:14.120Z,38.15
2023-03-16T08:38:45.351Z,36.97
2023-03-16T08:41:17.192Z,37.53
2023-03-16T08:43:46.637Z,39.03
2023-03-16T08:46:14.278Z,36.80
2023-03-16T08:49:14.246Z,38.38
2023-03-16T08:51:44.465Z,40.28
2023-03-16T08:54:12.079Z,40.38
2023-03-16T08:56:38.759Z,37.08
2023-03-16T08:59:05.654Z,40.25
2023-03-16T09:01:32.437Z,40.63
2023-03-16T09:04:00.457Z,39.15
2023-03-16T09:06:27.605Z,43.53
2023-03-16T09:08:55.952Z,40.78
2023-03-16T09:11:23.269Z,39.95
2023-03-16T09:13:52.737Z,43.25
2023-03-16T09:16:19.973Z,38.25
2023-03-16T09:18:47.774Z,38.05
2023-03-16T09:21:14.953Z,37.35
2023-03-16T09:23:42.931Z,35.58
2023-03-16T09:26:12.297Z,39.33
2023-03-16T09:28:41.918Z,37.33
2023-03-16T09:31:15.081Z,37.60
2023-03-16T09:33:41.848Z,38.60
2023-03-16T09:36:11.334Z,42.28
2023-03-16T09:38:38.439Z,38.13
2023-03-16T09:41:16.958Z,38.30
2023-03-16T09:43:49.604Z,42.00
2023-03-16T09:46:27.686Z,37.08
2023-03-16T09:48:56.518Z,34.20
2023-03-16T09:51:40.341Z,33.75
2023-03-16T09:54:34.229Z,34.22
2023-03-16T09:57:01.834Z,39.22
2023-03-16T09:59:28.576Z,32.03
2023-03-16T10:02:27.096Z,33.72
2023-03-16T10:05:10.839Z,34.28
2023-03-16T10:07:52.620Z,33.25
2023-03-16T10:10:31.108Z,33.22
2023-03-16T10:13:00.954Z,34.50
2023-03-16T10:15:31.186Z,47.10
2023-03-16T10:18:24.695Z,44.75
2023-03-16T10:20:55.236Z,48.22
2023-03-16T10:23:24.576Z,49.35
2023-03-16T10:25:54.058Z,46.33
2023-03-16T10:28:26.296Z,41.42
2023-03-16T10:30:55.431Z,41.53
2023-03-16T10:33:28.845Z,40.90
2023-03-16T10:36:11.324Z,41.00
2023-03-16T10:38:38.725Z,40.13
2023-03-16T10:41:27.832Z,39.53
2023-03-16T10:43:55.527Z,41.00
2023-03-16T10:46:24.815Z,41.20
2023-03-16T10:49:01.049Z,45.40
2023-03-16T10:51:38.047Z,43.05
2023-03-16T10:54:14.090Z,43.38
2023-03-16T10:56:40.753Z,44.13
2023-03-16T10:59:34.445Z,41.85
2023-03-16T11:02:16.750Z,43.20
2023-03-16T11:04:43.525Z,44.90
2023-03-16T11:07:20.592Z,45.38
2023-03-16T11:09:50.780Z,43.17
2023-03-16T11:12:36.542Z,42.28
2023-03-16T11:15:09.372Z,41.75
2023-03-16T11:17:49.587Z,42.45
2023-03-16T11:20:20.329Z,43.05
2023-03-16T11:22:48.349Z,44.05
2023-03-16T11:25:41.245Z,42.97
2023-03-16T11:28:12.772Z,44.45
2023-03-16T11:30:59.169Z,39.47
2023-03-16T11:33:27.094Z,42.92
2023-03-16T11:36:17.218Z,43.35
2023-03-16T11:39:04.551Z,42.63
2023-03-16T11:41:41.039Z,41.30
2023-03-16T11:44:13.618Z,42.25
2023-03-16T11:46:51.604Z,42.13
2023-03-16T11:49:42.089Z,42.92
2023-03-16T11:52:11.501Z,41.85
2023-03-16T11:55:09.025Z,43.38
2023-03-16T11:57:41.413Z,39.65
2023-03-16T12:00:22.558Z,42.60
2023-03-16T12:02:55.253Z,41.92
2023-03-16T12:05:45.002Z,42.72
2023-03-16T12:08:20.609Z,48.90
2023-03-16T12:11:23.163Z,44.20
2023-03-16T12:14:15.492Z,44.22
2023-03-16T12:17:04.599Z,44.72
2023-03-16T12:19:51.960Z,42.42
2023-03-16T12:22:21.405Z,42.63
2023-03-16T12:24:48.585Z,42.85
2023-03-16T12:27:22.476Z,40.88
2023-03-16T12:30:04.729Z,41.30
2023-03-16T12:32:53.386Z,44.35
2023-03-16T12:35:42.083Z,42.47
2023-03-16T12:38:22.740Z,43.42
2023-03-16T12:41:26.890Z,40.85
2023-03-16T12:44:18.967Z,41.22
2023-03-16T12:46:57.670Z,41.17
2023-03-16T12:49:25.109Z,41.58
2023-03-16T12:52:08.533Z,39.72
2023-03-16T12:54:36.716Z,40.97
2023-03-16T12:57:08.979Z,40.88
2023-03-16T12:59:42.930Z,40.17
2023-03-16T13:02:26.416Z,36.37
2023-03-16T13:05:09.928Z,37.28
2023-03-16T13:07:38.826Z,39.28
2023-03-16T13:10:13.769Z,37.20
2023-03-16T13:15:20.049Z,35.30
2023-03-16T13:17:50.795Z,35.92
2023-03-16T13:20:31.192Z,36.40
2023-03-16T13:23:10.346Z,37.15
2023-03-16T13:25:43.285Z,35.30
2023-03-16T13:28:15.444Z,37.17
2023-03-16T13:30:49.497Z,35.67
2023-03-16T13:33:26.182Z,35.63
2023-03-16T13:35:55.891Z,38.22
2023-03-16T13:38:27.572Z,36.40
2023-03-16T13:40:58.278Z,37.05
2023-03-16T13:43:31.576Z,37.72
2023-03-16T13:45:58.647Z,36.35
2023-03-16T13:48:25.763Z,36.90
2023-03-16T13:50:59.834Z,35.75
2023-03-16T13:53:32.717Z,37.87
2023-03-16T13:56:02.067Z,37.10
2023-03-16T13:58:33.648Z,36.85
2023-03-16T14:01:04.089Z,36.65
2023-03-16T14:03:33.973Z,37.78
2023-03-16T14:06:01.713Z,36.90
2023-03-16T14:08:29.802Z,35.13
2023-03-16T14:11:00.931Z,38.00
2023-03-16T14:13:27.897Z,35.47
2023-03-16T14:15:56.370Z,34.83
2023-03-16T14:18:26.709Z,34.35
2023-03-16T14:20:55.355Z,36.42
2023-03-16T14:23:30.926Z,35.83
2023-03-16T14:25:57.866Z,38.25
2023-03-16T14:28:32.412Z,35.28
2023-03-16T14:31:10.999Z,34.78
2023-03-16T14:33:41.876Z,34.58
2023-03-16T14:36:17.482Z,35.10
2023-03-16T14:38:48.093Z,35.08
2023-03-16T14:41:26.219Z,35.45
2023-03-16T14:43:58.944Z,35.97
2023-03-16T14:46:37.795Z,38.60
2023-03-16T14:49:27.974Z,38.60
2023-03-16T14:52:09.189Z,39.90
2023-03-16T14:54:36.666Z,39.13
2023-03-16T14:57:08.108Z,43.55
2023-03-16T14:59:34.928Z,39.80
2023-03-16T15:02:04.093Z,39.53
2023-03-16T15:04:34.588Z,41.35
2023-03-16T15:07:06.884Z,41.65
2023-03-16T15:09:39.495Z,42.05
2023-03-16T15:12:25.990Z,41.10
2023-03-16T15:15:11.592Z,40.53
2023-03-16T15:17:38.773Z,46.08
2023-03-16T15:20:07.170Z,37.88
2023-03-16T15:22:39.107Z,39.55
2023-03-16T15:25:20.222Z,40.22
2023-03-16T15:27:47.930Z,44.90
2023-03-16T15:30:28.920Z,46.03
2023-03-16T15:32:56.573Z,41.95
2023-03-16T15:35:23.377Z,37.45
2023-03-16T15:37:50.131Z,38.00
2023-03-16T15:40:24.216Z,37.05
2023-03-16T15:42:51.509Z,39.88
2023-03-16T15:45:21.352Z,41.17
2023-03-16T15:47:49.541Z,32.22
2023-03-16T15:50:18.524Z,39.85
2023-03-16T15:52:58.081Z,39.63
2023-03-16T15:55:33.080Z,37.63
2023-03-16T15:58:02.321Z,39.03
2023-03-16T16:00:34.545Z,38.35
2023-03-16T16:03:02.772Z,39.40
2023-03-16T16:05:30.787Z,39.15
2023-03-16T16:07:58.214Z,38.08
2023-03-16T16:10:26.812Z,39.70
2023-03-16T16:12:55.682Z,35.45
2023-03-16T16:15:33.676Z,34.88
2023-03-16T16:18:20.429Z,33.47
2023-03-16T16:20:49.070Z,35.80
2023-03-16T16:23:15.713Z,35.10
2023-03-16T16:25:42.727Z,35.72
2023-03-16T16:28:22.896Z,35.95
2023-03-16T16:30:50.490Z,37.45
2023-03-16T16:33:34.348Z,39.78
2023-03-16T16:36:03.593Z,34.65
2023-03-16T16:38:31.835Z,31.58
2023-03-16T16:41:01.585Z,30.88
2023-03-16T16:43:52.744Z,31.02
2023-03-16T16:46:23.571Z,29.30
2023-03-16T16:48:58.650Z,29.42
2023-03-16T16:51:27.633Z,29.85
2023-03-16T16:53:56.788Z,32.90
2023-03-16T16:56:30.123Z,31.33
2023-03-16T16:58:58.182Z,33.00
2023-03-16T17:01:34.391Z,34.58
2023-03-16T17:04:02.613Z,34.50
2023-03-16T17:06:29.880Z,30.45
2023-03-16T17:08:56.521Z,33.30
2023-03-16T17:11:24.973Z,33.65
2023-03-16T17:13:53.744Z,33.85
2023-03-16T17:16:26.539Z,33.42
2023-03-16T17:18:54.167Z,31.60
2023-03-16T17:21:23.655Z,23.08
2023-03-16T17:23:52.659Z,23.20
2023-03-16T17:26:27.825Z,23.23
2023-03-16T17:28:57.297Z,23.42
2023-03-16T17:31:27.002Z,24.33
2023-03-16T17:33:55.070Z,22.50
2023-03-16T17:36:22.648Z,23.88
2023-03-16T17:38:50.023Z,23.85
2023-03-16T17:41:24.841Z,39.95
2023-03-16T17:43:56.523Z,23.30
2023-03-16T17:46:26.402Z,36.97
2023-03-16T17:48:55.441Z,24.33
2023-03-16T17:51:25.375Z,28.98
2023-03-16T17:53:52.820Z,24.95
2023-03-16T17:56:27.612Z,25.10
2023-03-16T17:58:57.251Z,27.58
2023-03-16T18:01:35.013Z,22.85
2023-03-16T18:04:02.654Z,26.48
2023-03-16T18:06:31.096Z,34.35
2023-03-16T18:08:57.918Z,23.98
2023-03-16T18:11:33.983Z,25.85
2023-03-16T18:14:01.282Z,26.27
2023-03-16T18:16:28.167Z,32.05
2023-03-16T18:18:58.935Z,22.20
2023-03-16T18:21:26.552Z,24.33
2023-03-16T18:23:53.982Z,24.35
2023-03-16T18:26:22.129Z,23.58
2023-03-16T18:28:48.780Z,23.77
2023-03-16T18:31:21.527Z,23.38
2023-03-16T18:33:54.808Z,22.85
2023-03-16T18:36:29.740Z,25.35
2023-03-16T18:38:58.548Z,22.17
2023-03-16T18:41:28.180Z,23.40
2023-03-16T18:43:57.164Z,25.88
2023-03-16T18:46:26.873Z,32.75
2023-03-16T18:48:56.761Z,26.23
2023-03-16T18:51:24.137Z,23.38
2023-03-16T18:53:51.238Z,28.60
2023-03-16T18:56:21.152Z,35.80
2023-03-16T18:58:49.473Z,27.35
2023-03-16T19:01:23.791Z,35.88
2023-03-16T19:03:52.356Z,36.45
2023-03-16T19:06:25.059Z,23.88
2023-03-16T19:08:52.228Z,23.15
2023-03-16T19:11:19.295Z,36.38
2023-03-16T19:13:46.116Z,32.13
2023-03-16T19:16:22.694Z,38.55
2023-03-16T19:18:49.821Z,42.70
2023-03-16T19:21:19.289Z,29.13
2023-03-16T19:23:53.558Z,37.10
2023-03-16T19:26:20.256Z,33.30
2023-03-16T19:28:47.164Z,36.53
2023-03-16T19:31:16.533Z,30.38
2023-03-16T19:33:43.247Z,28.80
2023-03-16T19:36:25.486Z,24.77
2023-03-16T19:38:52.632Z,22.70
2023-03-16T19:41:34.288Z,22.58
2023-03-16T19:44:08.177Z,25.38
2023-03-16T19:46:34.942Z,26.42
2023-03-16T19:49:01.566Z,25.48
2023-03-16T19:51:29.192Z,23.52
2023-03-16T19:53:56.078Z,24.75
2023-03-16T19:56:24.940Z,25.20
2023-03-16T19:58:54.319Z,25.92
2023-03-16T20:01:25.053Z,23.63
2023-03-16T20:03:53.196Z,23.40
2023-03-16T20:06:22.233Z,23.50
2023-03-16T20:08:50.375Z,22.40
2023-03-16T20:11:21.289Z,23.15
2023-03-16T20:13:48.375Z,25.08
2023-03-16T20:16:26.634Z,24.40
2023-03-16T20:18:56.157Z,24.73
2023-03-16T20:21:22.885Z,22.88
2023-03-16T20:23:49.844Z,22.88
2023-03-16T20:26:20.892Z,26.52
2023-03-16T20:28:48.872Z,22.98
2023-03-16T20:31:18.683Z,21.92
2023-03-16T20:33:46.002Z,24.35
2023-03-16T20:36:13.231Z,24.30
2023-03-16T20:38:40.082Z,25.00
2023-03-16T20:41:14.206Z,23.50
2023-03-16T20:43:41.482Z,25.65
2023-03-16T20:46:16.140Z,22.77
2023-03-16T20:51:15.265Z,21.98
2023-03-16T20:53:46.461Z,31.95
2023-03-16T20:56:18.432Z,25.17
2023-03-16T20:58:47.729Z,34.70
2023-03-16T21:01:18.316Z,35.17
2023-03-16T21:03:47.534Z,32.60
2023-03-16T21:06:23.527Z,29.30
2023-03-16T21:08:51.924Z,30.10
2023-03-16T21:11:22.342Z,26.23
2023-03-16T21:13:49.454Z,24.27
2023-03-16T21:16:16.586Z,23.67
2023-03-16T21:18:43.268Z,25.63
2023-03-16T21:21:15.491Z,24.40
2023-03-16T21:23:42.344Z,23.40
2023-03-16T21:26:15.968Z,23.38
2023-03-16T21:28:43.820Z,24.25
2023-03-16T21:31:19.345Z,23.75
2023-03-16T21:33:46.443Z,23.13
2023-03-16T21:36:19.910Z,23.40
2023-03-16T21:38:47.173Z,25.48
2023-03-16T21:41:14.799Z,24.02
2023-03-16T21:43:42.928Z,24.23
2023-03-16T21:46:18.243Z,23.60
2023-03-16T21:48:49.425Z,23.08
2023-03-16T21:51:20.809Z,24.67
2023-03-16T21:53:49.170Z,22.77
2023-03-16T21:56:18.574Z,23.17
2023-03-16T21:58:47.022Z,24.08
2023-03-16T22:01:26.004Z,23.23
2023-03-16T22:03:55.340Z,28.88
2023-03-16T22:06:23.414Z,24.33
2023-03-16T22:08:51.289Z,23.85
2023-03-16T22:11:23.882Z,22.92
2023-03-16T22:13:51.852Z,22.85
2023-03-16T22:16:21.641Z,23.00
2023-03-16T22:18:51.858Z,20.80
2023-03-16T22:21:40.138Z,21.55
2023-03-16T22:24:17.767Z,21.88
2023-03-16T22:26:46.110Z,20.70
2023-03-16T22:29:31.511Z,21.10
2023-03-16T22:32:02.852Z,22.15
2023-03-16T22:34:29.481Z,21.63
2023-03-16T22:36:57.362Z,21.95
2023-03-16T22:39:24.228Z,22.95
2023-03-16T22:41:51.820Z,22.02
2023-03-16T22:44:22.705Z,23.77
2023-03-16T22:46:50.638Z,22.70
2023-03-16T22:49:27.758Z,23.25
2023-03-16T22:51:57.194Z,22.40
2023-03-16T22:54:27.097Z,23.92
2023-03-16T22:56:54.158Z,21.63
2023-03-16T22:59:24.378Z,21.63
2023-03-16T23:01:51.538Z,22.33
2023-03-16T23:04:24.389Z,21.92
2023-03-16T23:06:53.329Z,21.17
2023-03-16T23:09:21.717Z,21.55
2023-03-16T23:11:53.624Z,21.85
2023-03-16T23:14:27.166Z,21.88
2023-03-16T23:16:53.956Z,21.48
2023-03-16T23:19:25.094Z,21.73
2023-03-16T23:21:54.777Z,21.42
2023-03-16T23:24:22.288Z,22.08
2023-03-16T23:26:50.229Z,21.38
2023-03-16T23:29:16.957Z,21.38
2023-03-16T23:31:43.974Z,21.17
2023-03-16T23:34:16.822Z,21.35
2023-03-16T23:36:44.516Z,21.60
2023-03-16T23:39:12.008Z,21.27
2023-03-16T23:41:41.788Z,21.33
2023-03-16T23:44:10.501Z,20.95
2023-03-16T23:46:37.253Z,21.60
2023-03-16T23:49:04.873Z,22.48
2023-03-16T23:51:36.591Z,22.30
2023-03-16T23:54:21.020Z,21.52
2023-03-16T23:56:47.930Z,21.57
2023-03-16T23:59:14.682Z,21.90
